Time;durP1;ratioP1;P1;durP2;ratioP2;P2;SDS_P1;SDS_P2;PMS_P1;PMS_P2;Temp;Humidity;BMP_temperature;BMP_pressure;BME280_temperature;BME280_humidity;BME280_pressure;Samples;Min_cycle;Max_cycle;Signal;HPM_P1;HPM_P2
2021/07/20 04:31:41;;;;;;;27.40;15.93;;;14.60;99.90;;;;;;5608371;23;20493;-76
2021/07/20 04:34:12;;;;;;;21.10;14.80;;;14.60;99.90;;;;;;4989308;28;20417;-77
2021/07/20 04:36:40;;;;;;;25.30;16.13;;;14.70;99.90;;;;;;4991498;28;20410;-78
2021/07/20 04:39:09;;;;;;;22.53;14.90;;;14.80;99.90;;;;;;4979049;28;20440;-76
2021/07/20 04:41:36;;;;;;;24.80;16.20;;;14.80;99.90;;;;;;4979932;28;20531;-77
2021/07/20 04:44:02;;;;;;;19.07;14.93;;;14.90;99.90;;;;;;4972410;28;20414;-76
2021/07/20 04:46:28;;;;;;;25.77;15.90;;;14.90;99.90;;;;;;4970754;28;20496;-79
2021/07/20 04:48:53;;;;;;;23.03;15.43;;;14.90;99.90;;;;;;4972400;28;20198;-77
2021/07/20 04:51:19;;;;;;;30.43;16.13;;;15.10;99.90;;;;;;4971022;28;20196;-76
2021/07/20 04:53:45;;;;;;;21.17;14.33;;;15.10;99.90;;;;;;4973814;28;20191;-77
2021/07/20 04:56:11;;;;;;;22.23;15.30;;;15.20;99.90;;;;;;4975703;28;20257;-77
2021/07/20 04:58:38;;;;;;;26.10;16.10;;;15.20;99.90;;;;;;4976389;28;20234;-76
2021/07/20 05:01:05;;;;;;;23.93;15.97;;;15.30;99.90;;;;;;4974731;28;20204;-77
2021/07/20 05:03:32;;;;;;;26.60;15.93;;;15.30;99.90;;;;;;4975042;28;20438;-78
2021/07/20 05:05:58;;;;;;;23.80;14.90;;;15.40;99.90;;;;;;4975054;28;20456;-77
2021/07/20 05:08:26;;;;;;;22.30;16.20;;;15.50;99.90;;;;;;4974776;28;20419;-77
2021/07/20 05:10:55;;;;;;;24.27;16.30;;;15.60;99.90;;;;;;4975063;28;20910;-76
2021/07/20 05:13:22;;;;;;;27.17;16.37;;;15.60;99.90;;;;;;4974682;28;20547;-76
2021/07/20 05:15:51;;;;;;;21.03;14.97;;;15.70;99.90;;;;;;4975434;28;20418;-78
2021/07/20 05:18:17;;;;;;;21.90;15.40;;;15.90;99.90;;;;;;4973759;28;20426;-76
2021/07/20 05:20:44;;;;;;;21.93;15.00;;;16.20;99.90;;;;;;4975301;28;20415;-76
2021/07/20 05:23:16;;;;;;;26.73;14.07;;;16.50;99.90;;;;;;4974687;28;20446;-77
2021/07/20 05:25:45;;;;;;;23.30;14.30;;;16.90;99.90;;;;;;4975039;28;20462;-71
2021/07/20 05:28:12;;;;;;;25.00;14.60;;;17.10;99.90;;;;;;4974402;28;20834;-70
2021/07/20 05:30:40;;;;;;;18.60;12.83;;;17.40;99.90;;;;;;4974435;28;20425;-72
2021/07/20 05:33:07;;;;;;;23.03;14.37;;;17.80;99.90;;;;;;4974073;28;20519;-71
2021/07/20 05:35:34;;;;;;;19.83;13.97;;;18.10;99.90;;;;;;4974503;28;20470;-71
2021/07/20 05:38:01;;;;;;;21.13;15.40;;;18.30;99.90;;;;;;4974442;28;20954;-69
2021/07/20 05:40:27;;;;;;;25.37;14.17;;;18.40;99.90;;;;;;4974187;28;20432;-68
2021/07/20 05:42:55;;;;;;;18.00;13.67;;;18.70;99.90;;;;;;4974287;28;20424;-69
2021/07/20 05:45:21;;;;;;;17.17;13.63;;;18.80;99.90;;;;;;4974025;28;20443;-72
2021/07/20 05:47:49;;;;;;;19.33;13.97;;;19.10;99.90;;;;;;4974287;28;20415;-71
2021/07/20 05:50:17;;;;;;;22.67;14.33;;;19.20;99.90;;;;;;4973799;28;20419;-71
2021/07/20 05:52:45;;;;;;;20.27;13.77;;;19.20;99.90;;;;;;4973604;28;20794;-69
2021/07/20 05:55:13;;;;;;;18.30;12.00;;;19.40;99.90;;;;;;4973820;28;20415;-70
2021/07/20 05:57:40;;;;;;;17.90;12.70;;;19.50;99.90;;;;;;4974338;28;20502;-71
2021/07/20 06:00:08;;;;;;;18.40;12.63;;;19.50;99.90;;;;;;4973830;28;20412;-71
2021/07/20 06:02:36;;;;;;;18.50;12.43;;;19.60;99.90;;;;;;4973922;28;20435;-70
2021/07/20 06:05:03;;;;;;;19.60;13.03;;;19.80;99.90;;;;;;4973283;28;20439;-71
2021/07/20 06:07:30;;;;;;;20.67;13.83;;;19.90;99.90;;;;;;4971877;28;20431;-71
2021/07/20 06:09:56;;;;;;;19.30;14.57;;;20.10;99.90;;;;;;4973699;28;20446;-72
2021/07/20 06:12:23;;;;;;;18.97;14.60;;;20.20;99.90;;;;;;4973561;28;20447;-71
2021/07/20 06:14:50;;;;;;;19.07;12.50;;;20.20;99.90;;;;;;4973294;28;20841;-69
2021/07/20 06:17:16;;;;;;;19.70;13.07;;;20.40;99.90;;;;;;4973563;28;20896;-70
2021/07/20 06:19:41;;;;;;;19.00;12.77;;;20.50;99.90;;;;;;4973349;28;20454;-70
2021/07/20 06:22:10;;;;;;;19.97;13.10;;;20.60;99.90;;;;;;4972223;28;20470;-71
2021/07/20 06:24:45;;;;;;;21.23;11.93;;;20.70;99.90;;;;;;4973476;28;20708;-71
2021/07/20 06:27:12;;;;;;;17.13;11.73;;;20.70;99.90;;;;;;4973951;28;20508;-72
2021/07/20 06:29:38;;;;;;;19.90;12.33;;;20.90;99.90;;;;;;4972303;28;20415;-72
2021/07/20 06:32:06;;;;;;;17.43;12.60;;;21.10;99.90;;;;;;4973396;28;20522;-68
2021/07/20 06:34:34;;;;;;;16.50;12.13;;;21.40;99.90;;;;;;4972157;28;20494;-72
2021/07/20 06:37:00;;;;;;;22.37;11.77;;;21.50;99.90;;;;;;4973419;28;20415;-71
2021/07/20 06:39:26;;;;;;;18.07;11.93;;;21.50;99.90;;;;;;4971779;28;20822;-72
2021/07/20 06:41:53;;;;;;;16.60;11.87;;;21.70;99.90;;;;;;4973340;28;20447;-69
2021/07/20 06:44:19;;;;;;;24.43;12.80;;;21.80;99.90;;;;;;4973028;28;20219;-76
2021/07/20 06:46:45;;;;;;;18.23;11.93;;;21.90;99.90;;;;;;4973782;28;20800;-74
2021/07/20 06:49:14;;;;;;;17.53;12.47;;;22.10;99.90;;;;;;4973370;28;20426;-74
2021/07/20 06:51:39;;;;;;;17.80;13.17;;;21.90;99.90;;;;;;4973637;28;20195;-74
2021/07/20 06:54:05;;;;;;;20.53;13.07;;;21.90;99.90;;;;;;4973191;28;20403;-75
2021/07/20 06:56:40;;;;;;;20.40;11.70;;;22.10;99.90;;;;;;4973398;28;20191;-73
2021/07/20 06:59:07;;;;;;;13.80;10.90;;;22.20;99.90;;;;;;4973060;28;20184;-75
2021/07/20 07:01:35;;;;;;;14.37;10.43;;;22.40;99.90;;;;;;4973087;28;20542;-73
2021/07/20 07:04:08;;;;;;;15.53;9.83;;;22.70;99.90;;;;;;4972976;28;20407;-75
2021/07/20 07:06:39;;;;;;;20.00;11.40;;;22.80;99.90;;;;;;4973479;28;20451;-72
2021/07/20 07:09:06;;;;;;;15.33;10.60;;;23.00;99.90;;;;;;4973140;28;20408;-71
2021/07/20 07:11:32;;;;;;;13.57;11.20;;;22.60;99.90;;;;;;4972869;28;20433;-71
2021/07/20 07:13:59;;;;;;;20.07;11.30;;;22.80;99.90;;;;;;4972782;28;20807;-70
2021/07/20 07:16:25;;;;;;;15.30;11.10;;;22.90;99.90;;;;;;4971931;28;20837;-74
2021/07/20 07:18:52;;;;;;;12.97;10.30;;;23.00;99.90;;;;;;4972759;28;20423;-72
2021/07/20 07:21:19;;;;;;;13.67;12.13;;;23.30;99.90;;;;;;4972473;28;20435;-72
2021/07/20 07:23:48;;;;;;;15.70;10.63;;;23.40;99.90;;;;;;4972513;28;20411;-72
2021/07/20 07:26:14;;;;;;;16.43;11.27;;;23.40;99.90;;;;;;4972555;28;20465;-72
2021/07/20 07:28:43;;;;;;;16.87;12.30;;;23.50;99.90;;;;;;4972655;28;20511;-71
2021/07/20 07:31:11;;;;;;;13.63;10.90;;;23.80;99.90;;;;;;4969401;28;20211;-70
2021/07/20 07:33:37;;;;;;;16.90;11.07;;;24.00;99.90;;;;;;4963397;28;20584;-71
2021/07/20 07:36:03;;;;;;;15.53;10.83;;;24.20;99.90;;;;;;4970206;28;20506;-70
2021/07/20 07:38:29;;;;;;;17.57;10.70;;;24.10;99.90;;;;;;4967808;28;20238;-72
2021/07/20 07:40:56;;;;;;;16.80;11.80;;;24.10;99.90;;;;;;4964667;28;20568;-71
2021/07/20 07:43:27;;;;;;;16.33;10.87;;;23.90;99.90;;;;;;4972081;28;20407;-71
2021/07/20 07:45:55;;;;;;;17.70;9.80;;;24.20;99.90;;;;;;4972514;28;20463;-69
2021/07/20 07:48:22;;;;;;;17.93;9.80;;;24.20;99.90;;;;;;4972159;28;20511;-72
2021/07/20 07:50:55;;;;;;;16.50;10.13;;;24.20;99.90;;;;;;4971564;28;20443;-70
2021/07/20 07:53:21;;;;;;;14.70;10.40;;;24.40;99.90;;;;;;4972461;28;20449;-71
2021/07/20 07:55:50;;;;;;;13.40;9.80;;;24.60;99.90;;;;;;4972685;28;20459;-70
2021/07/20 07:58:19;;;;;;;13.43;9.43;;;24.80;99.90;;;;;;4972681;28;20266;-70
2021/07/20 08:00:47;;;;;;;10.67;8.97;;;25.00;99.90;;;;;;4972360;28;20411;-70
2021/07/20 08:03:16;;;;;;;13.70;9.53;;;25.10;99.90;;;;;;4971293;28;20518;-71
2021/07/20 08:05:45;;;;;;;18.07;11.00;;;25.20;99.90;;;;;;4972313;28;20459;-70
2021/07/20 08:08:12;;;;;;;15.10;9.80;;;25.40;99.90;;;;;;4972593;28;20458;-70
2021/07/20 08:10:41;;;;;;;14.50;9.20;;;25.50;99.90;;;;;;4971079;28;20936;-70
2021/07/20 08:13:07;;;;;;;21.37;12.57;;;25.60;99.90;;;;;;4972024;28;20419;-70
2021/07/20 08:15:35;;;;;;;19.90;10.17;;;25.80;99.90;;;;;;4972586;28;20478;-70
2021/07/20 08:18:01;;;;;;;13.60;10.27;;;25.90;99.90;;;;;;4971243;28;20415;-71
2021/07/20 08:20:31;;;;;;;12.07;9.73;;;26.20;99.90;;;;;;4972140;28;20442;-70
2021/07/20 08:22:56;;;;;;;14.10;9.70;;;26.30;99.90;;;;;;4970746;28;20477;-71
2021/07/20 08:25:35;;;;;;;13.47;9.90;;;26.10;99.90;;;;;;4971988;28;20820;-70
2021/07/20 08:28:08;;;;;;;13.10;10.00;;;26.30;99.90;;;;;;4973995;28;20227;-70
2021/07/20 08:30:46;;;;;;;11.10;9.23;;;26.30;99.90;;;;;;4975750;28;20423;-69
2021/07/20 08:33:19;;;;;;;9.90;8.77;;;26.40;99.90;;;;;;4975373;28;20978;-70
2021/07/20 08:35:47;;;;;;;11.50;8.80;;;26.60;99.90;;;;;;4975720;28;20431;-71
2021/07/20 08:38:14;;;;;;;11.33;10.13;;;26.70;99.90;;;;;;4972754;28;20427;-70
2021/07/20 08:40:46;;;;;;;13.07;8.67;;;26.70;99.90;;;;;;4975325;28;20415;-70
2021/07/20 08:43:21;;;;;;;16.73;9.10;;;26.80;99.90;;;;;;4975242;28;20403;-70
2021/07/20 08:46:08;;;;;;;15.00;8.50;;;26.90;99.90;;;;;;4975376;28;20516;-70
2021/07/20 08:48:44;;;;;;;12.50;8.40;;;27.10;99.90;;;;;;4974888;28;20929;-70
2021/07/20 08:51:15;;;;;;;14.60;9.33;;;26.90;99.90;;;;;;4973922;28;20814;-71
2021/07/20 08:53:49;;;;;;;13.00;9.77;;;27.00;99.90;;;;;;4973261;28;20403;-70
2021/07/20 08:56:17;;;;;;;11.40;8.83;;;27.00;99.90;;;;;;4975240;28;20408;-70
2021/07/20 08:58:47;;;;;;;12.40;9.20;;;27.10;99.90;;;;;;4975179;28;20411;-70
2021/07/20 09:01:35;;;;;;;9.17;8.27;;;27.40;99.90;;;;;;4974813;28;20635;-71
2021/07/20 09:04:19;;;;;;;10.83;9.73;;;27.60;99.90;;;;;;4974824;28;20490;-72
2021/07/20 09:06:59;;;;;;;10.83;8.60;;;27.90;99.90;;;;;;4975025;28;21044;-71
2021/07/20 09:09:35;;;;;;;15.23;8.70;;;27.70;99.90;;;;;;4974742;28;20510;-71
2021/07/20 09:12:08;;;;;;;13.83;9.83;;;28.10;99.90;;;;;;4973678;28;20454;-71
2021/07/20 09:14:39;;;;;;;18.47;10.80;;;27.80;99.90;;;;;;4974507;28;20928;-70
2021/07/20 09:17:42;;;;;;;14.30;9.73;;;28.00;99.90;;;;;;4975204;28;20414;-70
2021/07/20 09:20:20;;;;;;;11.80;10.27;;;27.80;99.90;;;;;;4974877;28;20403;-71
2021/07/20 09:22:54;;;;;;;14.07;9.20;;;28.20;99.90;;;;;;4974609;28;20940;-72
2021/07/20 09:25:35;;;;;;;11.77;10.50;;;28.70;99.90;;;;;;4974171;28;20407;-71
2021/07/20 09:28:13;;;;;;;11.43;9.00;;;28.40;99.90;;;;;;4975592;28;20466;-71
2021/07/20 09:30:46;;;;;;;10.83;9.73;;;28.70;99.90;;;;;;4974692;28;20411;-72
2021/07/20 09:33:29;;;;;;;14.27;9.73;;;29.00;99.90;;;;;;4975446;28;20578;-70
2021/07/20 09:36:39;;;;;;;13.13;10.67;;;29.30;99.90;;;;;;4974823;28;20506;-70
2021/07/20 09:39:52;;;;;;;13.30;9.57;;;29.60;99.90;;;;;;4969071;28;20435;-71
2021/07/20 09:42:53;;;;;;;13.30;11.20;;;29.80;99.90;;;;;;4952376;29;20459;-71
2021/07/20 09:45:24;;;;;;;14.40;11.20;;;30.20;99.90;;;;;;4947744;29;20568;-71
2021/07/20 09:47:57;;;;;;;12.37;11.07;;;30.00;99.90;;;;;;4969860;28;20462;-71
2021/07/20 09:50:25;;;;;;;15.00;12.17;;;30.20;99.90;;;;;;4974684;28;20502;-71
2021/07/20 09:53:14;;;;;;;13.90;10.03;;;30.00;99.90;;;;;;4974137;28;20512;-71
2021/07/20 09:56:07;;;;;;;15.00;10.50;;;30.30;99.90;;;;;;4973126;28;20419;-71
2021/07/20 09:59:00;;;;;;;10.97;9.73;;;30.50;99.90;;;;;;4972730;28;20426;-70
2021/07/20 10:01:38;;;;;;;14.83;11.73;;;30.10;99.90;;;;;;4973950;28;20490;-71
2021/07/20 10:04:28;;;;;;;13.50;10.57;;;29.90;99.90;;;;;;4972571;28;20829;-71
2021/07/20 10:07:06;;;;;;;13.23;10.50;;;30.10;99.90;;;;;;4973937;28;20458;-71
2021/07/20 10:09:52;;;;;;;14.50;10.60;;;30.20;99.90;;;;;;4973810;28;20411;-71
2021/07/20 10:12:29;;;;;;;11.40;10.20;;;30.70;99.90;;;;;;4973877;28;20458;-71
2021/07/20 10:15:12;;;;;;;12.33;10.13;;;30.60;99.90;;;;;;4973708;28;20494;-70
2021/07/20 10:18:03;;;;;;;14.77;12.57;;;30.30;99.90;;;;;;4973879;28;20415;-70
2021/07/20 10:20:37;;;;;;;16.50;12.17;;;29.90;99.90;;;;;;4973584;28;20415;-71
2021/07/20 10:23:11;;;;;;;18.47;13.33;;;29.20;99.90;;;;;;4973426;28;20503;-71
2021/07/20 10:25:59;;;;;;;21.73;11.63;;;29.00;99.90;;;;;;4972344;28;20465;-72
2021/07/20 10:28:39;;;;;;;16.87;12.27;;;29.10;99.90;;;;;;4973465;28;20420;-71
2021/07/20 10:31:14;;;;;;;12.70;10.50;;;29.80;99.90;;;;;;4973366;28;20825;-71
2021/07/20 10:33:50;;;;;;;13.23;10.93;;;30.40;99.90;;;;;;4972074;28;20426;-71
2021/07/20 10:36:19;;;;;;;16.47;11.53;;;30.40;99.90;;;;;;4973354;28;20419;-71
2021/07/20 10:39:04;;;;;;;11.77;10.60;;;30.10;99.90;;;;;;4973230;28;20419;-71
2021/07/20 10:41:57;;;;;;;12.67;11.37;;;29.40;99.90;;;;;;4973046;28;20443;-72
2021/07/20 10:44:35;;;;;;;13.03;10.73;;;28.80;99.90;;;;;;4973012;28;20501;-71
2021/07/20 10:47:04;;;;;;;16.37;12.37;;;28.40;99.90;;;;;;4972846;28;20473;-71
2021/07/20 10:49:55;;;;;;;17.23;10.50;;;28.70;99.90;;;;;;4972920;28;20427;-69
2021/07/20 10:52:21;;;;;;;16.53;12.23;;;29.40;99.90;;;;;;4972929;28;20438;-72
2021/07/20 10:54:55;;;;;;;18.57;11.77;;;29.40;99.90;;;;;;4972967;28;20407;-71
2021/07/20 10:57:27;;;;;;;12.73;11.40;;;29.70;99.90;;;;;;4973039;28;20176;-71
2021/07/20 11:00:08;;;;;;;13.30;10.33;;;30.00;99.90;;;;;;4971749;28;20428;-71
2021/07/20 11:03:03;;;;;;;16.97;11.67;;;29.70;99.90;;;;;;4971038;28;20979;-71
2021/07/20 11:05:30;;;;;;;17.83;12.10;;;29.20;99.90;;;;;;4953513;29;20444;-71
2021/07/20 11:08:05;;;;;;;12.77;11.43;;;28.90;99.90;;;;;;4954048;28;20653;-70
2021/07/20 11:10:46;;;;;;;15.43;11.93;;;28.90;99.90;;;;;;4953171;28;20408;-71
2021/07/20 11:13:21;;;;;;;12.80;11.40;;;28.20;99.90;;;;;;4953239;29;20427;-71
2021/07/20 11:15:53;;;;;;;14.47;12.47;;;27.80;99.90;;;;;;4952674;29;20435;-71
2021/07/20 11:18:24;;;;;;;13.30;11.47;;;27.30;99.90;;;;;;4952096;29;20428;-71
2021/07/20 11:20:51;;;;;;;15.40;11.97;;;26.90;99.90;;;;;;4953526;28;20444;-71
2021/07/20 11:23:18;;;;;;;13.30;11.27;;;27.30;99.90;;;;;;4951965;29;20515;-70
2021/07/20 11:25:47;;;;;;;16.80;12.43;;;27.80;99.90;;;;;;4953298;29;20793;-71
2021/07/20 11:28:14;;;;;;;16.30;12.50;;;28.10;99.90;;;;;;4952000;29;20460;-70
2021/07/20 11:30:43;;;;;;;15.93;12.87;;;28.30;99.90;;;;;;4953216;28;20412;-71
2021/07/20 11:33:15;;;;;;;15.53;13.33;;;28.30;99.90;;;;;;4951959;29;20460;-70
2021/07/20 11:35:43;;;;;;;14.60;12.40;;;28.40;99.90;;;;;;4953233;29;20423;-70
2021/07/20 11:38:19;;;;;;;16.37;12.97;;;28.50;99.90;;;;;;4952107;28;20420;-71
2021/07/20 11:41:04;;;;;;;14.43;12.03;;;28.10;99.90;;;;;;4952955;28;20424;-71
2021/07/20 11:43:41;;;;;;;16.30;12.60;;;27.60;99.90;;;;;;4951834;29;20424;-70
2021/07/20 11:46:10;;;;;;;16.80;12.17;;;27.20;99.90;;;;;;4953209;28;20455;-70
2021/07/20 11:48:46;;;;;;;15.47;12.33;;;26.90;99.90;;;;;;4951645;29;20424;-71
2021/07/20 11:51:24;;;;;;;17.43;12.03;;;27.00;99.90;;;;;;4953016;28;20451;-70
2021/07/20 11:54:10;;;;;;;16.20;12.80;;;27.20;99.90;;;;;;4953151;29;20420;-70
2021/07/20 11:56:59;;;;;;;14.83;12.20;;;27.50;99.90;;;;;;4959896;28;20497;-70
2021/07/20 12:00:03;;;;;;;15.97;11.70;;;27.70;99.90;;;;;;4952270;28;20427;-70
2021/07/20 12:03:15;;;;;;;13.00;10.87;;;27.90;99.90;;;;;;4973624;28;21010;-70
2021/07/20 12:06:12;;;;;;;13.27;11.90;;;28.00;99.90;;;;;;4975260;28;20501;-70
2021/07/20 12:09:06;;;;;;;13.07;11.77;;;28.10;99.90;;;;;;4976232;28;20414;-71
2021/07/20 12:11:37;;;;;;;12.13;10.90;;;28.00;99.90;;;;;;4958348;28;20439;-70
2021/07/20 12:14:08;;;;;;;16.80;12.60;;;28.10;99.90;;;;;;4975913;28;20787;-70
2021/07/20 12:16:59;;;;;;;12.70;11.23;;;28.00;99.90;;;;;;4974937;28;20454;-70
2021/07/20 12:19:35;;;;;;;14.27;12.47;;;27.70;99.90;;;;;;4973617;28;20451;-70
2021/07/20 12:22:11;;;;;;;16.47;11.43;;;27.30;99.90;;;;;;4974448;28;20443;-70
2021/07/20 12:24:37;;;;;;;14.47;12.20;;;27.10;99.90;;;;;;4975541;28;20442;-71
2021/07/20 12:27:05;;;;;;;30.73;13.50;;;26.70;99.90;;;;;;4975461;28;20462;-71
2021/07/20 12:29:31;;;;;;;14.13;11.93;;;26.30;99.90;;;;;;4974255;28;20489;-71
2021/07/20 12:32:00;;;;;;;16.20;11.73;;;26.30;99.90;;;;;;4975337;28;20451;-71
2021/07/20 12:34:28;;;;;;;14.07;12.43;;;26.40;99.90;;;;;;4974154;28;20180;-70
2021/07/20 12:36:53;;;;;;;17.07;12.03;;;26.30;99.90;;;;;;4975715;28;20449;-70
2021/07/20 12:39:23;;;;;;;16.40;12.93;;;26.20;99.90;;;;;;4975226;28;20895;-71
2021/07/20 12:41:53;;;;;;;15.07;11.77;;;26.50;99.90;;;;;;4975540;28;20192;-70
2021/07/20 12:44:21;;;;;;;13.50;11.37;;;26.60;99.90;;;;;;4973848;28;20415;-70
2021/07/20 12:46:47;;;;;;;23.13;12.53;;;26.80;99.90;;;;;;4975420;28;20478;-70
2021/07/20 12:49:15;;;;;;;12.37;11.03;;;26.90;99.90;;;;;;4973982;28;20490;-70
2021/07/20 12:51:52;;;;;;;17.37;12.17;;;26.60;99.90;;;;;;4975489;28;20520;-71
2021/07/20 12:54:40;;;;;;;17.10;12.23;;;26.70;99.90;;;;;;4973728;28;20421;-74
2021/07/20 12:57:07;;;;;;;15.50;10.73;;;26.80;99.90;;;;;;4975744;28;20419;-74
2021/07/20 12:59:34;;;;;;;22.17;12.97;;;26.80;99.90;;;;;;4975082;28;20412;-72
2021/07/20 13:02:00;;;;;;;14.00;11.30;;;26.70;99.90;;;;;;4975112;28;20474;-72
2021/07/20 13:04:26;;;;;;;16.13;11.00;;;26.40;99.90;;;;;;4974785;28;21037;-73
2021/07/20 13:06:53;;;;;;;15.20;11.57;;;26.50;99.90;;;;;;4975505;28;20796;-74
2021/07/20 13:09:20;;;;;;;16.57;11.10;;;26.30;99.90;;;;;;4975201;28;20404;-74
2021/07/20 13:11:48;;;;;;;15.60;11.27;;;26.40;99.90;;;;;;4973583;28;20525;-74
2021/07/20 13:14:15;;;;;;;16.30;11.60;;;26.50;99.90;;;;;;4965079;28;20420;-74
2021/07/20 13:16:44;;;;;;;12.93;11.00;;;26.60;99.90;;;;;;4955871;29;20423;-74
2021/07/20 13:19:12;;;;;;;16.70;10.70;;;26.60;99.90;;;;;;4956443;28;20798;-74
2021/07/20 13:21:42;;;;;;;23.90;12.47;;;26.40;99.90;;;;;;4974944;28;20438;-73
2021/07/20 13:24:09;;;;;;;10.50;9.40;;;26.00;99.90;;;;;;4974688;28;20426;-74
2021/07/20 13:26:35;;;;;;;14.20;10.80;;;26.10;99.90;;;;;;4974895;28;20841;-74
2021/07/20 13:29:04;;;;;;;15.53;9.57;;;26.00;99.90;;;;;;4974761;28;20415;-74
2021/07/20 13:31:33;;;;;;;13.83;10.17;;;26.20;99.90;;;;;;4974629;28;20455;-73
2021/07/20 13:34:00;;;;;;;12.63;10.80;;;26.30;99.90;;;;;;4974748;28;20462;-73
2021/07/20 13:36:30;;;;;;;13.83;9.90;;;26.20;99.90;;;;;;4974416;28;20430;-74
2021/07/20 13:38:57;;;;;;;12.80;10.23;;;26.20;99.90;;;;;;4974626;28;20426;-74
2021/07/20 13:41:24;;;;;;;16.93;12.50;;;26.30;99.90;;;;;;4973013;28;20454;-74
2021/07/20 13:43:54;;;;;;;10.97;9.43;;;26.20;99.90;;;;;;4974208;28;20446;-74
2021/07/20 13:46:22;;;;;;;12.87;9.73;;;26.20;99.90;;;;;;4974243;28;20467;-74
2021/07/20 13:48:49;;;;;;;13.70;10.40;;;26.30;99.90;;;;;;4974435;28;20426;-74
2021/07/20 13:51:18;;;;;;;14.53;10.57;;;26.40;99.90;;;;;;4974464;28;20448;-74
2021/07/20 13:54:06;;;;;;;11.87;9.20;;;26.40;99.90;;;;;;4974368;28;20420;-73
2021/07/20 13:56:34;;;;;;;12.20;9.50;;;26.30;99.90;;;;;;4975903;28;20412;-73
2021/07/20 13:59:14;;;;;;;13.50;9.30;;;26.30;99.90;;;;;;4973778;28;20435;-74
2021/07/20 14:01:42;;;;;;;14.10;8.17;;;26.20;99.90;;;;;;4974257;28;20443;-74
2021/07/20 14:04:09;;;;;;;9.63;8.60;;;26.10;99.90;;;;;;4973922;28;20426;-74
2021/07/20 14:06:35;;;;;;;12.67;9.17;;;26.10;99.90;;;;;;4973911;28;20984;-74
2021/07/20 14:09:02;;;;;;;13.20;8.37;;;26.10;99.90;;;;;;4973960;28;20416;-74
2021/07/20 14:11:28;;;;;;;12.23;9.77;;;26.10;99.90;;;;;;4973822;28;20471;-74
2021/07/20 14:13:55;;;;;;;11.40;8.93;;;26.10;99.90;;;;;;4973836;28;20420;-74
2021/07/20 14:16:21;;;;;;;10.40;9.30;;;25.90;99.90;;;;;;4972645;28;20427;-74
2021/07/20 14:18:50;;;;;;;11.90;9.33;;;25.80;99.90;;;;;;4973717;28;20429;-74
2021/07/20 14:21:28;;;;;;;11.53;8.70;;;25.80;99.90;;;;;;4973530;28;20808;-74
2021/07/20 14:23:59;;;;;;;10.73;8.37;;;25.70;99.90;;;;;;4973788;28;20768;-74
2021/07/20 14:26:25;;;;;;;10.50;8.63;;;25.50;99.90;;;;;;4973199;28;20883;-74
2021/07/20 14:28:53;;;;;;;15.60;10.20;;;25.50;99.90;;;;;;4974552;28;20726;-74
2021/07/20 14:31:19;;;;;;;11.90;10.30;;;25.50;99.90;;;;;;4973515;28;20593;-71
2021/07/20 14:33:45;;;;;;;10.77;9.23;;;25.40;99.90;;;;;;4973569;28;20411;-74
2021/07/20 14:36:45;;;;;;;15.53;10.40;;;25.40;99.90;;;;;;4973449;28;20186;-73
2021/07/20 14:39:32;;;;;;;11.93;10.27;;;25.40;99.90;;;;;;4973406;28;20437;-78
2021/07/20 14:42:10;;;;;;;14.20;9.90;;;25.20;99.90;;;;;;4973567;28;20541;-78
2021/07/20 14:45:10;;;;;;;13.33;10.53;;;25.20;99.90;;;;;;4973613;28;20415;-78
2021/07/20 14:47:41;;;;;;;13.43;9.60;;;25.30;99.90;;;;;;4971528;28;20506;-77
2021/07/20 14:50:08;;;;;;;16.13;9.83;;;25.30;99.90;;;;;;4970110;28;20879;-78
2021/07/20 14:52:51;;;;;;;11.93;9.83;;;25.40;99.90;;;;;;4972720;28;20423;-78
2021/07/20 14:55:31;;;;;;;13.20;10.10;;;25.40;99.90;;;;;;4973266;28;20451;-78
2021/07/20 14:58:14;;;;;;;13.20;9.97;;;25.40;99.90;;;;;;4973618;28;20470;-78
2021/07/20 15:00:51;;;;;;;12.63;8.77;;;25.30;99.90;;;;;;4973612;28;20419;-78
2021/07/20 15:03:42;;;;;;;16.97;12.07;;;25.30;99.90;;;;;;4971674;28;20419;-78
2021/07/20 15:06:15;;;;;;;13.20;9.80;;;25.20;99.90;;;;;;4973015;28;20458;-78
2021/07/20 15:08:45;;;;;;;13.13;10.60;;;25.20;99.90;;;;;;4973354;28;20417;-78
2021/07/20 15:11:25;;;;;;;15.30;10.50;;;25.20;99.90;;;;;;4972058;28;20428;-78
2021/07/20 15:13:54;;;;;;;11.73;9.10;;;25.20;99.90;;;;;;4973441;28;20492;-78
2021/07/20 15:16:21;;;;;;;13.23;9.70;;;25.10;99.90;;;;;;4973010;28;20463;-78
2021/07/20 15:18:59;;;;;;;15.30;10.57;;;25.10;99.90;;;;;;4972803;28;20416;-78
2021/07/20 15:21:32;;;;;;;11.40;9.37;;;24.90;99.90;;;;;;4971167;28;20462;-78
2021/07/20 15:23:58;;;;;;;11.13;9.70;;;25.00;99.90;;;;;;4972582;28;20869;-78
2021/07/20 15:26:24;;;;;;;12.00;9.70;;;24.90;99.90;;;;;;4972944;28;20534;-78
2021/07/20 15:28:51;;;;;;;14.87;10.30;;;24.90;99.90;;;;;;4973299;28;20240;-78
2021/07/20 15:31:18;;;;;;;13.00;9.47;;;25.00;99.90;;;;;;4972440;28;20834;-78
2021/07/20 15:33:46;;;;;;;15.80;10.77;;;24.90;99.90;;;;;;4972600;28;20446;-78
2021/07/20 15:36:13;;;;;;;12.80;10.30;;;24.90;99.90;;;;;;4972559;28;20751;-77
2021/07/20 15:38:39;;;;;;;18.23;10.57;;;24.80;99.90;;;;;;4968232;28;20440;-76
2021/07/20 15:41:07;;;;;;;17.83;12.83;;;24.70;99.90;;;;;;4970944;28;20485;-76
2021/07/20 15:43:42;;;;;;;12.70;9.50;;;24.70;99.90;;;;;;4968065;28;20423;-76
2021/07/20 15:46:08;;;;;;;16.70;9.87;;;24.60;99.90;;;;;;4968295;28;20462;-76
2021/07/20 15:48:42;;;;;;;15.43;10.07;;;24.60;99.90;;;;;;4968599;28;20473;-76
2021/07/20 15:51:14;;;;;;;15.03;9.27;;;24.60;99.90;;;;;;4969458;28;20518;-75
2021/07/20 15:53:40;;;;;;;11.33;10.03;;;24.50;99.90;;;;;;4967687;28;20423;-76
2021/07/20 15:56:07;;;;;;;13.87;10.40;;;24.50;99.90;;;;;;4970415;28;20427;-76
2021/07/20 15:58:34;;;;;;;13.60;11.20;;;24.60;99.90;;;;;;4968699;28;20427;-76
2021/07/20 16:01:02;;;;;;;15.00;10.93;;;24.50;99.90;;;;;;4967373;28;20481;-77
2021/07/20 16:03:27;;;;;;;13.93;11.20;;;24.50;99.90;;;;;;4968691;28;20793;-74
2021/07/20 16:05:56;;;;;;;13.40;10.80;;;24.50;99.90;;;;;;4967245;28;20467;-75
2021/07/20 16:08:24;;;;;;;14.03;11.47;;;24.50;99.90;;;;;;4958831;28;20569;-77
2021/07/20 16:10:50;;;;;;;12.83;10.60;;;24.50;99.90;;;;;;4967945;28;20419;-76
2021/07/20 16:13:16;;;;;;;17.83;10.27;;;24.50;99.90;;;;;;4970619;28;20466;-74
2021/07/20 16:15:42;;;;;;;16.10;10.80;;;24.40;99.90;;;;;;4969561;28;20486;-76
2021/07/20 16:18:14;;;;;;;11.10;9.90;;;24.30;99.90;;;;;;4968805;28;20435;-75
2021/07/20 16:21:00;;;;;;;13.53;9.37;;;24.40;99.90;;;;;;4969381;28;20458;-77
2021/07/20 16:23:31;;;;;;;15.27;10.70;;;24.40;99.90;;;;;;4968492;28;20452;-76
2021/07/20 16:26:08;;;;;;;14.20;10.10;;;24.30;99.90;;;;;;4968510;28;20521;-74
2021/07/20 16:28:35;;;;;;;13.60;10.37;;;24.30;99.90;;;;;;4967255;28;20447;-76
2021/07/20 16:31:03;;;;;;;14.93;10.63;;;24.20;99.90;;;;;;4964307;28;20510;-74
2021/07/20 16:33:30;;;;;;;16.13;10.87;;;24.10;99.90;;;;;;4967899;28;21225;-74
2021/07/20 16:35:58;;;;;;;13.87;10.50;;;24.10;99.90;;;;;;4967346;28;20518;-74
2021/07/20 16:38:25;;;;;;;12.97;9.73;;;24.00;99.90;;;;;;4969123;28;20980;-76
2021/07/20 16:41:00;;;;;;;10.90;9.73;;;24.10;99.90;;;;;;4968587;28;20433;-77
2021/07/20 16:43:28;;;;;;;15.63;9.20;;;24.10;99.90;;;;;;4967897;28;20441;-74
2021/07/20 16:46:18;;;;;;;13.83;10.33;;;24.00;99.90;;;;;;4968437;28;20976;-76
2021/07/20 16:48:45;;;;;;;14.23;10.30;;;24.00;99.90;;;;;;4969416;28;20785;-74
2021/07/20 16:51:14;;;;;;;13.93;11.10;;;24.00;99.90;;;;;;4970098;28;20443;-74
2021/07/20 16:53:50;;;;;;;17.70;11.77;;;24.00;99.90;;;;;;4971936;28;20415;-74
2021/07/20 16:56:25;;;;;;;11.87;9.10;;;23.90;99.90;;;;;;4971805;28;20656;-73
2021/07/20 16:58:55;;;;;;;10.50;9.13;;;23.90;99.90;;;;;;4969637;28;21884;-75
2021/07/20 17:01:22;;;;;;;18.50;12.70;;;23.90;99.90;;;;;;4970776;28;20538;-76
2021/07/20 17:03:49;;;;;;;16.70;10.57;;;23.90;99.90;;;;;;4971898;28;20866;-73
2021/07/20 17:06:15;;;;;;;12.47;9.17;;;23.80;99.90;;;;;;4972061;28;21094;-74
2021/07/20 17:08:45;;;;;;;13.93;10.43;;;23.80;99.90;;;;;;4973126;28;20408;-76
2021/07/20 17:11:11;;;;;;;11.80;10.47;;;23.80;99.90;;;;;;4970789;28;20443;-75
2021/07/20 17:13:36;;;;;;;12.70;9.90;;;23.70;99.90;;;;;;4971750;28;20975;-74
2021/07/20 17:16:02;;;;;;;11.87;9.27;;;23.70;99.90;;;;;;4972899;28;20430;-73
2021/07/20 17:18:30;;;;;;;10.50;9.10;;;23.60;99.90;;;;;;4972706;28;20760;-74
2021/07/20 17:20:58;;;;;;;12.77;10.27;;;23.60;99.90;;;;;;4972211;28;20214;-76
2021/07/20 17:23:25;;;;;;;10.87;9.70;;;23.50;99.90;;;;;;4971379;28;20506;-75
2021/07/20 17:26:09;;;;;;;15.73;10.27;;;23.50;99.90;;;;;;4972067;28;20918;-75